createdAt,value
2017-02-23T18:37:30.327Z,240
2017-02-23T18:38:27.462Z,520
2017-02-23T18:39:27.394Z,528
2017-02-23T18:40:27.414Z,524
2017-02-23T18:41:27.501Z,528
2017-02-23T18:42:27.426Z,528
2017-02-23T18:43:28.280Z,524
2017-02-23T18:44:27.398Z,524
2017-02-23T18:45:27.405Z,524
2017-02-23T18:46:27.453Z,524
2017-02-23T18:47:27.416Z,524
2017-02-23T18:48:27.385Z,524
2017-02-23T18:49:27.474Z,524
2017-02-23T18:50:27.418Z,524
2017-02-23T18:51:27.466Z,524
2017-02-23T18:52:27.413Z,524
2017-02-23T18:53:27.401Z,560
2017-02-23T18:54:27.416Z,560
2017-02-23T18:55:27.500Z,536
2017-02-23T18:56:27.494Z,536
2017-02-23T18:57:29.874Z,528
2017-02-23T18:58:27.407Z,532
2017-02-23T18:59:27.412Z,536
2017-02-23T19:00:27.636Z,528
2017-02-23T19:01:27.495Z,532
2017-02-23T19:02:27.455Z,536
2017-02-23T19:03:27.419Z,540
2017-02-23T19:04:27.521Z,544
2017-02-23T19:05:27.445Z,544
2017-02-23T19:06:27.427Z,492
2017-02-23T19:07:27.499Z,500
2017-02-23T19:08:27.450Z,500
2017-02-23T19:09:28.604Z,500
2017-02-23T19:10:29.384Z,500
2017-02-23T19:11:29.297Z,496
2017-02-23T19:12:27.662Z,496
2017-02-23T19:13:27.443Z,496
2017-02-23T19:14:27.450Z,500
2017-02-23T19:15:27.467Z,496
2017-02-23T19:16:27.432Z,500
2017-02-23T19:17:27.454Z,496
2017-02-23T19:18:27.467Z,500
2017-02-23T19:19:27.468Z,512
2017-02-23T19:20:27.468Z,512
2017-02-23T19:21:27.456Z,512
2017-02-23T19:22:27.463Z,512
2017-02-23T19:23:27.470Z,500
2017-02-23T19:24:27.499Z,500
2017-02-23T19:25:27.506Z,500
2017-02-23T19:26:27.444Z,500
2017-02-23T19:27:27.493Z,500
2017-02-23T19:28:27.466Z,500
2017-02-23T19:29:27.450Z,500
2017-02-23T19:30:27.549Z,500
2017-02-23T19:31:27.508Z,500
2017-02-23T19:32:27.545Z,496
2017-02-23T19:33:27.601Z,500
2017-02-23T19:34:27.864Z,492
2017-02-23T19:35:27.510Z,504
2017-02-23T19:36:27.737Z,508
2017-02-23T19:37:27.508Z,532
2017-02-23T19:38:27.507Z,488
2017-02-23T19:39:27.508Z,484
2017-02-23T19:40:27.458Z,496
2017-02-23T19:41:27.505Z,496
2017-02-23T19:42:27.516Z,460
2017-02-23T19:43:27.492Z,452
2017-02-23T19:44:27.547Z,500
2017-02-23T19:45:27.487Z,484
2017-02-23T19:46:27.543Z,488
2017-02-23T19:47:27.491Z,484
2017-02-23T19:48:27.496Z,480
2017-02-23T19:49:27.770Z,488
2017-02-23T19:50:27.507Z,476
2017-02-23T19:51:27.506Z,480
2017-02-23T19:52:27.556Z,484
2017-02-23T19:53:27.499Z,484
2017-02-23T19:54:27.574Z,484
2017-02-23T19:55:27.536Z,484
2017-02-23T19:56:27.485Z,484
2017-02-23T19:57:27.523Z,484
2017-02-23T19:58:27.534Z,408
2017-02-23T19:59:27.520Z,412
2017-02-23T20:00:27.596Z,424
2017-02-23T20:01:27.556Z,424
2017-02-23T20:02:27.563Z,408
2017-02-23T20:03:27.715Z,404
2017-02-23T20:04:27.535Z,400
2017-02-23T20:05:27.618Z,412
2017-02-23T20:06:27.544Z,412
2017-02-23T20:07:27.566Z,416
2017-02-23T20:08:27.596Z,408
2017-02-23T20:09:36.901Z,404
2017-02-23T20:10:30.402Z,404
2017-02-23T20:11:27.528Z,404
2017-02-23T20:12:27.601Z,404
2017-02-23T20:13:27.560Z,400
2017-02-23T20:14:27.615Z,396
2017-02-23T20:15:27.609Z,404
2017-02-23T20:16:27.545Z,488
2017-02-23T20:17:27.647Z,468
2017-02-23T20:18:27.580Z,476
2017-02-23T20:19:27.596Z,480
2017-02-23T20:20:27.583Z,476
2017-02-23T20:21:27.793Z,464
2017-02-23T20:22:27.616Z,464
2017-02-23T20:23:27.583Z,464
2017-02-23T20:24:27.562Z,460
2017-02-23T20:25:27.702Z,464
2017-02-23T20:26:27.770Z,468
2017-02-23T20:27:27.599Z,464
2017-02-23T20:28:27.578Z,464
2017-02-23T20:29:27.585Z,464
2017-02-23T20:30:27.653Z,464
2017-02-23T20:31:27.732Z,464
2017-02-23T20:32:27.584Z,460
2017-02-23T20:33:27.559Z,460
2017-02-23T20:34:27.589Z,464
2017-02-23T20:35:27.636Z,464
2017-02-23T20:36:27.669Z,464
2017-02-23T20:37:27.585Z,464
2017-02-23T20:38:27.589Z,464
2017-02-23T20:39:27.587Z,460
2017-02-23T20:40:27.661Z,460
2017-02-23T20:41:27.615Z,460
2017-02-23T20:42:27.628Z,460
2017-02-23T20:43:27.626Z,460
2017-02-23T20:44:27.668Z,460
2017-02-23T20:45:27.643Z,456
2017-02-23T20:46:27.644Z,460
2017-02-23T20:47:27.606Z,460
2017-02-23T20:48:27.682Z,460
2017-02-23T20:49:27.600Z,460
2017-02-23T20:50:27.611Z,460
2017-02-23T20:51:27.613Z,464
2017-02-23T20:52:27.633Z,428
2017-02-23T20:53:27.667Z,424
2017-02-23T20:54:27.613Z,428
2017-02-23T20:55:27.662Z,428
2017-02-23T20:56:27.630Z,428
2017-02-23T20:57:27.631Z,428
2017-02-23T20:58:27.685Z,428
2017-02-23T20:59:27.666Z,428
2017-02-23T21:00:27.645Z,424
2017-02-23T21:01:27.626Z,424
2017-02-23T21:02:27.709Z,428
2017-02-23T21:03:27.714Z,428
2017-02-23T21:04:27.648Z,424
2017-02-23T21:05:27.623Z,424
2017-02-23T21:06:27.692Z,428
2017-02-23T21:07:27.668Z,420
2017-02-23T21:08:27.646Z,424
2017-02-23T21:09:27.704Z,428
2017-02-23T21:10:27.639Z,424
2017-02-23T21:11:27.681Z,428
2017-02-23T21:12:27.672Z,424
2017-02-23T21:13:27.675Z,424
2017-02-23T21:14:27.707Z,432
2017-02-23T21:15:36.986Z,432
2017-02-23T21:16:27.706Z,432
2017-02-23T21:17:27.666Z,432
2017-02-23T21:18:27.639Z,432
2017-02-23T21:19:27.716Z,432
2017-02-23T21:20:27.795Z,432
2017-02-23T21:21:27.668Z,428
2017-02-23T21:22:27.665Z,428
2017-02-23T21:23:27.768Z,432
2017-02-23T21:24:37.061Z,460
2017-02-23T21:25:27.726Z,460
2017-02-23T21:26:27.701Z,460
2017-02-23T21:27:27.881Z,460
2017-02-23T21:28:27.724Z,444
2017-02-23T21:29:27.663Z,448
2017-02-23T21:30:27.673Z,448
2017-02-23T21:31:27.687Z,444
2017-02-23T21:32:27.679Z,448
2017-02-23T21:33:27.712Z,444
2017-02-23T21:34:27.839Z,444
2017-02-23T21:35:27.683Z,444
2017-02-23T21:36:27.746Z,444
2017-02-23T21:37:27.717Z,444
2017-02-23T21:38:27.861Z,440
2017-02-23T21:39:27.833Z,440
2017-02-23T21:40:29.972Z,440
2017-02-23T21:41:27.703Z,444
2017-02-23T21:42:27.793Z,440
2017-02-23T21:43:27.717Z,440
2017-02-23T21:44:27.757Z,444
2017-02-23T21:45:27.711Z,444
2017-02-23T21:46:28.353Z,444
2017-02-23T21:47:27.868Z,440
2017-02-23T21:48:27.765Z,440
2017-02-23T21:49:27.739Z,444
2017-02-23T21:50:27.909Z,440
2017-02-23T21:51:27.809Z,440
2017-02-23T21:52:27.708Z,440
2017-02-23T21:53:27.764Z,440
2017-02-23T21:54:27.721Z,440
2017-02-23T21:55:27.764Z,440
2017-02-23T21:56:27.727Z,444
2017-02-23T21:57:27.845Z,444
2017-02-23T21:58:27.809Z,444
2017-02-23T21:59:28.806Z,444
2017-02-23T22:00:27.736Z,444
2017-02-23T22:01:27.715Z,444
2017-02-23T22:02:27.771Z,444
2017-02-23T22:03:28.578Z,444
2017-02-23T22:04:27.767Z,444
2017-02-23T22:05:27.750Z,444
2017-02-23T22:06:27.771Z,444
2017-02-23T22:07:27.738Z,444
2017-02-23T22:08:27.808Z,444
2017-02-23T22:09:27.949Z,444
2017-02-23T22:10:27.790Z,432
2017-02-23T22:11:27.792Z,432
2017-02-23T22:12:27.822Z,428
2017-02-23T22:13:27.786Z,436
2017-02-23T22:14:27.787Z,432
2017-02-23T22:15:27.794Z,432
2017-02-23T22:16:27.963Z,424
2017-02-23T22:17:27.779Z,424
2017-02-23T22:18:27.781Z,424
2017-02-23T22:19:27.809Z,424
2017-02-23T22:20:27.811Z,424
2017-02-23T22:21:27.877Z,424
2017-02-23T22:22:27.832Z,424
2017-02-23T22:23:27.762Z,456
2017-02-23T22:24:27.788Z,456
